Taschereau, Canada
Current Conditions -  °F | °C
As of 3:00 PM on Friday 24 Oct 2014 (Local Time) from CYUY Reporting Station
Few Clouds Few Clouds  
Wind Chill: 55°   Ceiling: Unl
Heat Index: 55°   Visibility: 15mi
Dew Point: 32°   Wind: 7mph
Humidity: 41%   Direction: 260°W
Pressure: 29.87"   Gusts: NA
Location:  48.67°N, 78.7°W
Report Text: CYUY 241900Z 26006KT 250V310 15SM FEW160 FEW240 13/00 A2987 RMK AC1CI2 AC TR SLP125 DENSITY ALT 1000FT
Loading
Personal Weather Stations






























Interactive Weather Map
Tropical Storm Tracking
New forecast layout! Learn more

10-Day Weather Forecast

Advertisements
Track Severe Weather on mobile